sensor_id;sensor_type;location;lat;lon;timestamp;pressure;altitude;pressure_sealevel;temperature;humidity
46087;BME280;31824;49.648;8.640;2023-05-02T00:01:21;100418.19;;;13.07;100.00
46087;BME280;31824;49.648;8.640;2023-05-02T00:04:24;100417.13;;;12.95;100.00
46087;BME280;31824;49.648;8.640;2023-05-02T00:07:26;100409.97;;;12.83;100.00
46087;BME280;31824;49.648;8.640;2023-05-02T00:10:29;100411.81;;;12.64;100.00
46087;BME280;31824;49.648;8.640;2023-05-02T00:13:30;100409.56;;;12.58;100.00
46087;BME280;31824;49.648;8.640;2023-05-02T00:16:32;100403.38;;;12.68;100.00
46087;BME280;31824;49.648;8.640;2023-05-02T00:19:38;100401.09;;;12.52;100.00
46087;BME280;31824;49.648;8.640;2023-05-02T00:22:42;100405.69;;;12.34;100.00
46087;BME280;31824;49.648;8.640;2023-05-02T00:25:44;100403.53;;;12.20;100.00
46087;BME280;31824;49.648;8.640;2023-05-02T00:28:47;100419.94;;;12.07;100.00
46087;BME280;31824;49.648;8.640;2023-05-02T00:31:48;100416.88;;;12.02;100.00
46087;BME280;31824;49.648;8.640;2023-05-02T00:34:52;100418.47;;;12.00;100.00
46087;BME280;31824;49.648;8.640;2023-05-02T00:37:54;100431.03;;;11.94;100.00
46087;BME280;31824;49.648;8.640;2023-05-02T00:40:56;100421.69;;;11.87;100.00
46087;BME280;31824;49.648;8.640;2023-05-02T00:43:58;100428.63;;;11.87;100.00
46087;BME280;31824;49.648;8.640;2023-05-02T00:47:00;100423.59;;;11.79;100.00
46087;BME280;31824;49.648;8.640;2023-05-02T00:50:05;100427.25;;;11.71;100.00
46087;BME280;31824;49.648;8.640;2023-05-02T00:53:08;100429.75;;;11.70;100.00
46087;BME280;31824;49.648;8.640;2023-05-02T00:56:10;100432.16;;;11.58;100.00
46087;BME280;31824;49.648;8.640;2023-05-02T00:59:12;100439.97;;;11.47;100.00
46087;BME280;31824;49.648;8.640;2023-05-02T01:02:25;100436.03;;;11.42;100.00
46087;BME280;31824;49.648;8.640;2023-05-02T01:05:35;100430.94;;;11.35;100.00
46087;BME280;31824;49.648;8.640;2023-05-02T01:08:49;100427.47;;;11.26;100.00
46087;BME280;31824;49.648;8.640;2023-05-02T01:11:59;100431.94;;;11.08;100.00
46087;BME280;31824;49.648;8.640;2023-05-02T01:15:07;100436.31;;;10.98;100.00
46087;BME280;31824;49.648;8.640;2023-05-02T01:18:12;100434.53;;;10.89;100.00
46087;BME280;31824;49.648;8.640;2023-05-02T01:21:16;100441.53;;;10.79;100.00
46087;BME280;31824;49.648;8.640;2023-05-02T01:24:22;100451.41;;;10.82;100.00
46087;BME280;31824;49.648;8.640;2023-05-02T01:27:32;100450.72;;;10.74;100.00
46087;BME280;31824;49.648;8.640;2023-05-02T01:30:37;100461.38;;;10.67;100.00
46087;BME280;31824;49.648;8.640;2023-05-02T01:33:41;100467.03;;;10.53;100.00
46087;BME280;31824;49.648;8.640;2023-05-02T01:36:47;100457.91;;;10.49;100.00
46087;BME280;31824;49.648;8.640;2023-05-02T01:39:51;100470.00;;;10.38;100.00
46087;BME280;31824;49.648;8.640;2023-05-02T01:42:56;100472.16;;;10.34;100.00
46087;BME280;31824;49.648;8.640;2023-05-02T01:46:00;100481.56;;;10.31;100.00
46087;BME280;31824;49.648;8.640;2023-05-02T01:49:06;100479.28;;;10.35;100.00
46087;BME280;31824;49.648;8.640;2023-05-02T01:52:10;100491.31;;;10.33;100.00
46087;BME280;31824;49.648;8.640;2023-05-02T01:55:16;100484.03;;;10.39;100.00
46087;BME280;31824;49.648;8.640;2023-05-02T01:58:20;100488.53;;;10.31;100.00
46087;BME280;31824;49.648;8.640;2023-05-02T02:01:25;100491.97;;;10.12;100.00
46087;BME280;31824;49.648;8.640;2023-05-02T02:04:30;100502.78;;;9.98;100.00
46087;BME280;31824;49.648;8.640;2023-05-02T02:07:33;100500.81;;;9.87;100.00
46087;BME280;31824;49.648;8.640;2023-05-02T02:10:39;100498.00;;;9.94;100.00
46087;BME280;31824;49.648;8.640;2023-05-02T02:13:47;100507.75;;;9.86;100.00
46087;BME280;31824;49.648;8.640;2023-05-02T02:16:54;100504.97;;;9.85;100.00
46087;BME280;31824;49.648;8.640;2023-05-02T02:20:00;100516.22;;;9.75;100.00
46087;BME280;31824;49.648;8.640;2023-05-02T02:23:07;100512.06;;;9.68;100.00
46087;BME280;31824;49.648;8.640;2023-05-02T02:26:11;100511.31;;;9.60;100.00
46087;BME280;31824;49.648;8.640;2023-05-02T02:29:14;100520.72;;;9.50;100.00
46087;BME280;31824;49.648;8.640;2023-05-02T02:32:17;100526.72;;;9.49;100.00
46087;BME280;31824;49.648;8.640;2023-05-02T02:35:18;100528.72;;;9.42;100.00
46087;BME280;31824;49.648;8.640;2023-05-02T02:38:26;100531.47;;;9.35;100.00
46087;BME280;31824;49.648;8.640;2023-05-02T02:41:35;100532.69;;;9.30;100.00
46087;BME280;31824;49.648;8.640;2023-05-02T02:44:49;100534.25;;;9.28;100.00
46087;BME280;31824;49.648;8.640;2023-05-02T02:48:06;100524.97;;;9.23;100.00
46087;BME280;31824;49.648;8.640;2023-05-02T02:51:13;100534.38;;;9.21;100.00
46087;BME280;31824;49.648;8.640;2023-05-02T02:54:20;100541.91;;;9.18;100.00
46087;BME280;31824;49.648;8.640;2023-05-02T02:57:34;100530.81;;;9.11;100.00
46087;BME280;31824;49.648;8.640;2023-05-02T03:00:40;100537.56;;;9.09;100.00
46087;BME280;31824;49.648;8.640;2023-05-02T03:03:46;100539.28;;;9.09;100.00
46087;BME280;31824;49.648;8.640;2023-05-02T03:06:49;100546.66;;;9.04;100.00
46087;BME280;31824;49.648;8.640;2023-05-02T03:09:51;100550.66;;;9.01;100.00
46087;BME280;31824;49.648;8.640;2023-05-02T03:12:56;100551.41;;;9.00;100.00
46087;BME280;31824;49.648;8.640;2023-05-02T03:16:24;100558.81;;;8.95;100.00
46087;BME280;31824;49.648;8.640;2023-05-02T03:19:31;100556.97;;;8.94;100.00
46087;BME280;31824;49.648;8.640;2023-05-02T03:22:34;100566.19;;;8.90;100.00
46087;BME280;31824;49.648;8.640;2023-05-02T03:25:36;100565.72;;;8.94;100.00
46087;BME280;31824;49.648;8.640;2023-05-02T03:28:39;100564.16;;;8.88;100.00
46087;BME280;31824;49.648;8.640;2023-05-02T03:31:42;100562.44;;;8.79;100.00
46087;BME280;31824;49.648;8.640;2023-05-02T03:34:47;100566.09;;;8.73;100.00
46087;BME280;31824;49.648;8.640;2023-05-02T03:37:49;100568.25;;;8.68;100.00
46087;BME280;31824;49.648;8.640;2023-05-02T03:40:51;100573.91;;;8.64;100.00
46087;BME280;31824;49.648;8.640;2023-05-02T03:43:53;100581.34;;;8.68;100.00
46087;BME280;31824;49.648;8.640;2023-05-02T03:46:57;100583.34;;;8.71;100.00
46087;BME280;31824;49.648;8.640;2023-05-02T03:50:01;100586.25;;;8.65;100.00
46087;BME280;31824;49.648;8.640;2023-05-02T03:53:05;100582.41;;;8.70;100.00
46087;BME280;31824;49.648;8.640;2023-05-02T03:56:17;100584.97;;;8.86;100.00
46087;BME280;31824;49.648;8.640;2023-05-02T03:59:31;100587.97;;;9.07;100.00
46087;BME280;31824;49.648;8.640;2023-05-02T04:02:35;100590.00;;;9.09;100.00
46087;BME280;31824;49.648;8.640;2023-05-02T04:05:38;100597.47;;;9.22;100.00
46087;BME280;31824;49.648;8.640;2023-05-02T04:08:41;100605.19;;;9.29;100.00
46087;BME280;31824;49.648;8.640;2023-05-02T04:11:43;100606.44;;;9.33;100.00
46087;BME280;31824;49.648;8.640;2023-05-02T04:14:47;100616.59;;;9.30;100.00
46087;BME280;31824;49.648;8.640;2023-05-02T04:17:49;100628.84;;;9.56;100.00
46087;BME280;31824;49.648;8.640;2023-05-02T04:20:52;100638.28;;;9.54;100.00
46087;BME280;31824;49.648;8.640;2023-05-02T04:23:56;100645.53;;;9.65;100.00
46087;BME280;31824;49.648;8.640;2023-05-02T04:26:59;100644.31;;;9.61;100.00
46087;BME280;31824;49.648;8.640;2023-05-02T04:30:02;100638.63;;;9.74;100.00
46087;BME280;31824;49.648;8.640;2023-05-02T04:33:04;100646.97;;;9.79;100.00
46087;BME280;31824;49.648;8.640;2023-05-02T04:36:11;100654.38;;;9.83;100.00
46087;BME280;31824;49.648;8.640;2023-05-02T04:39:19;100656.53;;;9.87;100.00
46087;BME280;31824;49.648;8.640;2023-05-02T04:42:33;100664.25;;;9.86;100.00
46087;BME280;31824;49.648;8.640;2023-05-02T04:45:48;100665.34;;;9.96;100.00
46087;BME280;31824;49.648;8.640;2023-05-02T04:48:59;100677.75;;;10.06;100.00
46087;BME280;31824;49.648;8.640;2023-05-02T04:52:02;100668.63;;;10.11;100.00
46087;BME280;31824;49.648;8.640;2023-05-02T04:55:06;100674.66;;;10.10;100.00
46087;BME280;31824;49.648;8.640;2023-05-02T04:58:09;100678.50;;;10.05;100.00
46087;BME280;31824;49.648;8.640;2023-05-02T05:01:11;100683.44;;;9.93;100.00
46087;BME280;31824;49.648;8.640;2023-05-02T05:04:14;100695.19;;;10.06;100.00
46087;BME280;31824;49.648;8.640;2023-05-02T05:07:17;100695.50;;;10.18;100.00
46087;BME280;31824;49.648;8.640;2023-05-02T05:10:21;100697.22;;;10.26;100.00
46087;BME280;31824;49.648;8.640;2023-05-02T05:13:23;100707.31;;;10.47;100.00
46087;BME280;31824;49.648;8.640;2023-05-02T05:16:26;100718.91;;;10.58;100.00
46087;BME280;31824;49.648;8.640;2023-05-02T05:19:28;100725.84;;;10.67;100.00
46087;BME280;31824;49.648;8.640;2023-05-02T05:22:37;100724.63;;;10.72;100.00
46087;BME280;31824;49.648;8.640;2023-05-02T05:25:40;100730.63;;;10.62;100.00
46087;BME280;31824;49.648;8.640;2023-05-02T05:28:46;100726.16;;;10.78;100.00
46087;BME280;31824;49.648;8.640;2023-05-02T05:31:48;100735.88;;;10.79;100.00
46087;BME280;31824;49.648;8.640;2023-05-02T05:34:52;100739.91;;;10.93;100.00
46087;BME280;31824;49.648;8.640;2023-05-02T05:37:58;100748.53;;;11.10;100.00
46087;BME280;31824;49.648;8.640;2023-05-02T05:41:01;100746.53;;;10.90;100.00
46087;BME280;31824;49.648;8.640;2023-05-02T05:44:03;100758.31;;;10.93;100.00
46087;BME280;31824;49.648;8.640;2023-05-02T05:47:05;100762.16;;;10.97;100.00
46087;BME280;31824;49.648;8.640;2023-05-02T05:50:08;100767.72;;;10.91;100.00
46087;BME280;31824;49.648;8.640;2023-05-02T05:53:12;100769.13;;;10.96;100.00
46087;BME280;31824;49.648;8.640;2023-05-02T05:56:16;100769.56;;;11.01;100.00
46087;BME280;31824;49.648;8.640;2023-05-02T05:59:26;100770.03;;;11.14;100.00
46087;BME280;31824;49.648;8.640;2023-05-02T06:02:27;100782.53;;;11.17;100.00
46087;BME280;31824;49.648;8.640;2023-05-02T06:05:30;100783.47;;;11.18;100.00
46087;BME280;31824;49.648;8.640;2023-05-02T06:08:33;100780.25;;;11.11;100.00
46087;BME280;31824;49.648;8.640;2023-05-02T06:11:35;100784.88;;;11.05;100.00
46087;BME280;31824;49.648;8.640;2023-05-02T06:14:38;100782.09;;;11.12;100.00
46087;BME280;31824;49.648;8.640;2023-05-02T06:17:40;100786.38;;;11.29;100.00
46087;BME280;31824;49.648;8.640;2023-05-02T06:20:42;100784.22;;;11.25;100.00
46087;BME280;31824;49.648;8.640;2023-05-02T06:23:45;100796.84;;;11.56;100.00
46087;BME280;31824;49.648;8.640;2023-05-02T06:26:47;100796.06;;;11.65;100.00
46087;BME280;31824;49.648;8.640;2023-05-02T06:29:50;100802.66;;;11.79;100.00
46087;BME280;31824;49.648;8.640;2023-05-02T06:32:51;100806.81;;;11.86;100.00
46087;BME280;31824;49.648;8.640;2023-05-02T06:35:53;100803.28;;;11.68;100.00
46087;BME280;31824;49.648;8.640;2023-05-02T06:38:56;100814.16;;;11.71;100.00
46087;BME280;31824;49.648;8.640;2023-05-02T06:41:58;100813.53;;;11.74;100.00
46087;BME280;31824;49.648;8.640;2023-05-02T06:45:01;100819.94;;;11.41;100.00
46087;BME280;31824;49.648;8.640;2023-05-02T06:48:03;100815.41;;;11.66;100.00
46087;BME280;31824;49.648;8.640;2023-05-02T06:51:05;100830.56;;;11.69;100.00
46087;BME280;31824;49.648;8.640;2023-05-02T06:54:08;100828.31;;;11.91;100.00
46087;BME280;31824;49.648;8.640;2023-05-02T06:57:10;100826.56;;;12.09;100.00
46087;BME280;31824;49.648;8.640;2023-05-02T07:00:13;100828.06;;;12.71;100.00
46087;BME280;31824;49.648;8.640;2023-05-02T07:03:15;100838.56;;;12.52;100.00
46087;BME280;31824;49.648;8.640;2023-05-02T07:06:17;100842.25;;;13.01;100.00
46087;BME280;31824;49.648;8.640;2023-05-02T07:09:21;100844.31;;;12.76;100.00
46087;BME280;31824;49.648;8.640;2023-05-02T07:12:22;100846.50;;;12.71;100.00
46087;BME280;31824;49.648;8.640;2023-05-02T07:15:25;100845.16;;;12.66;100.00
46087;BME280;31824;49.648;8.640;2023-05-02T07:18:27;100846.63;;;12.81;100.00
46087;BME280;31824;49.648;8.640;2023-05-02T07:21:28;100849.13;;;13.18;100.00
46087;BME280;31824;49.648;8.640;2023-05-02T07:24:31;100853.78;;;13.31;100.00
46087;BME280;31824;49.648;8.640;2023-05-02T07:27:33;100843.97;;;13.20;100.00
46087;BME280;31824;49.648;8.640;2023-05-02T07:30:35;100846.00;;;13.32;100.00
46087;BME280;31824;49.648;8.640;2023-05-02T07:33:37;100844.91;;;13.39;100.00
46087;BME280;31824;49.648;8.640;2023-05-02T07:36:39;100847.03;;;13.43;100.00
46087;BME280;31824;49.648;8.640;2023-05-02T07:39:43;100843.53;;;13.53;100.00
46087;BME280;31824;49.648;8.640;2023-05-02T07:42:44;100848.09;;;13.75;100.00
46087;BME280;31824;49.648;8.640;2023-05-02T07:45:47;100849.66;;;13.43;100.00
46087;BME280;31824;49.648;8.640;2023-05-02T07:48:49;100858.94;;;13.48;100.00
46087;BME280;31824;49.648;8.640;2023-05-02T07:51:50;100849.91;;;13.36;100.00
46087;BME280;31824;49.648;8.640;2023-05-02T07:54:54;100861.22;;;13.35;100.00
46087;BME280;31824;49.648;8.640;2023-05-02T07:57:56;100857.91;;;13.46;100.00
46087;BME280;31824;49.648;8.640;2023-05-02T08:00:58;100858.91;;;13.97;100.00
46087;BME280;31824;49.648;8.640;2023-05-02T08:03:59;100866.78;;;13.87;100.00
46087;BME280;31824;49.648;8.640;2023-05-02T08:07:01;100866.91;;;13.88;100.00
46087;BME280;31824;49.648;8.640;2023-05-02T08:10:06;100868.50;;;13.86;100.00
46087;BME280;31824;49.648;8.640;2023-05-02T08:13:08;100868.19;;;13.83;100.00
46087;BME280;31824;49.648;8.640;2023-05-02T08:16:10;100879.66;;;13.73;100.00
46087;BME280;31824;49.648;8.640;2023-05-02T08:19:12;100878.44;;;13.99;100.00
46087;BME280;31824;49.648;8.640;2023-05-02T08:22:13;100884.47;;;14.27;100.00
46087;BME280;31824;49.648;8.640;2023-05-02T08:25:17;100881.88;;;14.38;100.00
46087;BME280;31824;49.648;8.640;2023-05-02T08:28:18;100880.94;;;14.47;100.00
46087;BME280;31824;49.648;8.640;2023-05-02T08:31:20;100891.50;;;14.37;100.00
46087;BME280;31824;49.648;8.640;2023-05-02T08:34:22;100889.03;;;14.59;100.00
46087;BME280;31824;49.648;8.640;2023-05-02T08:37:24;100892.72;;;14.61;100.00
46087;BME280;31824;49.648;8.640;2023-05-02T08:40:34;100903.41;;;14.42;100.00
46087;BME280;31824;49.648;8.640;2023-05-02T08:43:43;100894.66;;;14.33;100.00
46087;BME280;31824;49.648;8.640;2023-05-02T08:46:45;100899.28;;;14.35;100.00
46087;BME280;31824;49.648;8.640;2023-05-02T08:49:48;100902.28;;;14.19;100.00
46087;BME280;31824;49.648;8.640;2023-05-02T08:52:51;100906.69;;;14.40;100.00
46087;BME280;31824;49.648;8.640;2023-05-02T08:55:55;100910.47;;;14.62;100.00
46087;BME280;31824;49.648;8.640;2023-05-02T08:58:58;100912.41;;;14.44;100.00
46087;BME280;31824;49.648;8.640;2023-05-02T09:02:06;100917.38;;;14.91;100.00
46087;BME280;31824;49.648;8.640;2023-05-02T09:05:17;100925.59;;;14.34;100.00
46087;BME280;31824;49.648;8.640;2023-05-02T09:08:23;100928.22;;;14.63;100.00
46087;BME280;31824;49.648;8.640;2023-05-02T09:11:26;100927.31;;;15.14;100.00
46087;BME280;31824;49.648;8.640;2023-05-02T09:14:28;100939.00;;;14.56;100.00
46087;BME280;31824;49.648;8.640;2023-05-02T09:17:38;100947.25;;;14.69;100.00
46087;BME280;31824;49.648;8.640;2023-05-02T09:20:40;100937.75;;;14.72;100.00
46087;BME280;31824;49.648;8.640;2023-05-02T09:23:43;100949.31;;;14.13;100.00
46087;BME280;31824;49.648;8.640;2023-05-02T09:26:56;100951.16;;;14.54;100.00
46087;BME280;31824;49.648;8.640;2023-05-02T09:30:17;100961.16;;;14.38;100.00
46087;BME280;31824;49.648;8.640;2023-05-02T09:33:27;100961.47;;;14.61;100.00
46087;BME280;31824;49.648;8.640;2023-05-02T09:36:38;100949.00;;;15.10;100.00
46087;BME280;31824;49.648;8.640;2023-05-02T09:39:40;100957.63;;;14.97;100.00
46087;BME280;31824;49.648;8.640;2023-05-02T09:43:14;100969.09;;;15.39;100.00
46087;BME280;31824;49.648;8.640;2023-05-02T09:46:19;100968.97;;;15.38;100.00
46087;BME280;31824;49.648;8.640;2023-05-02T09:49:39;100967.25;;;15.48;100.00
46087;BME280;31824;49.648;8.640;2023-05-02T09:52:59;100970.56;;;15.25;100.00
46087;BME280;31824;49.648;8.640;2023-05-02T09:56:02;100967.47;;;15.82;100.00
46087;BME280;31824;49.648;8.640;2023-05-02T09:59:13;100961.97;;;15.17;100.00
46087;BME280;31824;49.648;8.640;2023-05-02T10:02:15;100969.66;;;15.45;100.00
46087;BME280;31824;49.648;8.640;2023-05-02T10:05:18;100970.53;;;16.19;100.00
46087;BME280;31824;49.648;8.640;2023-05-02T10:08:23;100966.25;;;15.79;100.00
46087;BME280;31824;49.648;8.640;2023-05-02T10:11:26;100968.19;;;16.12;100.00
46087;BME280;31824;49.648;8.640;2023-05-02T10:14:30;100970.38;;;15.85;100.00
46087;BME280;31824;49.648;8.640;2023-05-02T10:17:38;100961.47;;;16.28;100.00
46087;BME280;31824;49.648;8.640;2023-05-02T10:20:47;100978.34;;;16.50;100.00
46087;BME280;31824;49.648;8.640;2023-05-02T10:23:55;100960.78;;;16.08;100.00
46087;BME280;31824;49.648;8.640;2023-05-02T10:26:57;100966.22;;;16.32;100.00
46087;BME280;31824;49.648;8.640;2023-05-02T10:30:01;100975.00;;;15.98;100.00
46087;BME280;31824;49.648;8.640;2023-05-02T10:33:05;100964.22;;;16.07;100.00
46087;BME280;31824;49.648;8.640;2023-05-02T10:36:09;100964.22;;;16.07;100.00
46087;BME280;31824;49.648;8.640;2023-05-02T10:39:13;100950.84;;;16.06;100.00
46087;BME280;31824;49.648;8.640;2023-05-02T10:42:16;100965.91;;;16.94;100.00
46087;BME280;31824;49.648;8.640;2023-05-02T10:45:32;100965.28;;;17.08;100.00
46087;BME280;31824;49.648;8.640;2023-05-02T10:48:34;100970.25;;;16.27;100.00
46087;BME280;31824;49.648;8.640;2023-05-02T10:51:37;100962.13;;;16.58;100.00
46087;BME280;31824;49.648;8.640;2023-05-02T10:54:39;100966.09;;;16.85;100.00
46087;BME280;31824;49.648;8.640;2023-05-02T10:58:20;100973.31;;;16.98;100.00
46087;BME280;31824;49.648;8.640;2023-05-02T11:01:34;100961.44;;;17.04;100.00
46087;BME280;31824;49.648;8.640;2023-05-02T11:04:59;100965.00;;;17.27;100.00
46087;BME280;31824;49.648;8.640;2023-05-02T11:08:30;100957.75;;;17.48;100.00
46087;BME280;31824;49.648;8.640;2023-05-02T11:11:40;100960.03;;;17.55;100.00
46087;BME280;31824;49.648;8.640;2023-05-02T11:14:44;100956.69;;;16.56;100.00
46087;BME280;31824;49.648;8.640;2023-05-02T11:18:02;100968.41;;;17.72;100.00
46087;BME280;31824;49.648;8.640;2023-05-02T11:21:25;100960.63;;;16.83;100.00
46087;BME280;31824;49.648;8.640;2023-05-02T11:24:36;100958.34;;;17.10;100.00
46087;BME280;31824;49.648;8.640;2023-05-02T11:27:39;100961.09;;;17.00;100.00
46087;BME280;31824;49.648;8.640;2023-05-02T11:30:43;100958.97;;;16.51;100.00
46087;BME280;31824;49.648;8.640;2023-05-02T11:33:54;100954.13;;;16.90;100.00
46087;BME280;31824;49.648;8.640;2023-05-02T11:36:56;100964.44;;;17.09;100.00
46087;BME280;31824;49.648;8.640;2023-05-02T11:40:09;100961.69;;;16.85;100.00
46087;BME280;31824;49.648;8.640;2023-05-02T11:43:12;100962.19;;;17.14;100.00
46087;BME280;31824;49.648;8.640;2023-05-02T11:46:14;100951.97;;;17.42;100.00
46087;BME280;31824;49.648;8.640;2023-05-02T11:49:19;100961.81;;;17.67;100.00
46087;BME280;31824;49.648;8.640;2023-05-02T11:52:21;100947.97;;;16.47;100.00
46087;BME280;31824;49.648;8.640;2023-05-02T11:55:24;100957.38;;;16.76;100.00
46087;BME280;31824;49.648;8.640;2023-05-02T11:58:27;100948.66;;;15.79;100.00
46087;BME280;31824;49.648;8.640;2023-05-02T12:01:33;100951.16;;;15.88;100.00
46087;BME280;31824;49.648;8.640;2023-05-02T12:04:42;100949.81;;;16.36;100.00
46087;BME280;31824;49.648;8.640;2023-05-02T12:07:47;100958.72;;;17.27;100.00
46087;BME280;31824;49.648;8.640;2023-05-02T12:10:53;100955.88;;;17.47;100.00
46087;BME280;31824;49.648;8.640;2023-05-02T12:13:55;100958.22;;;17.66;100.00
46087;BME280;31824;49.648;8.640;2023-05-02T12:16:57;100949.22;;;17.64;100.00
46087;BME280;31824;49.648;8.640;2023-05-02T12:20:02;100950.38;;;17.56;100.00
46087;BME280;31824;49.648;8.640;2023-05-02T12:23:04;100948.91;;;17.26;100.00
46087;BME280;31824;49.648;8.640;2023-05-02T12:26:17;100951.25;;;18.51;100.00
46087;BME280;31824;49.648;8.640;2023-05-02T12:29:19;100952.84;;;19.37;100.00
46087;BME280;31824;49.648;8.640;2023-05-02T12:32:26;100952.22;;;18.40;100.00
46087;BME280;31824;49.648;8.640;2023-05-02T12:35:32;100952.25;;;19.16;100.00
46087;BME280;31824;49.648;8.640;2023-05-02T12:38:34;100956.22;;;18.84;100.00
46087;BME280;31824;49.648;8.640;2023-05-02T12:41:38;100956.19;;;17.98;100.00
46087;BME280;31824;49.648;8.640;2023-05-02T12:44:45;100963.81;;;18.17;100.00
46087;BME280;31824;49.648;8.640;2023-05-02T12:47:48;100966.53;;;18.42;100.00
46087;BME280;31824;49.648;8.640;2023-05-02T12:50:54;100966.22;;;19.50;100.00
46087;BME280;31824;49.648;8.640;2023-05-02T12:53:56;100959.41;;;19.81;100.00
46087;BME280;31824;49.648;8.640;2023-05-02T12:56:58;100957.19;;;19.10;100.00
46087;BME280;31824;49.648;8.640;2023-05-02T13:00:00;100951.50;;;17.48;100.00
46087;BME280;31824;49.648;8.640;2023-05-02T13:03:03;100950.56;;;18.42;100.00
46087;BME280;31824;49.648;8.640;2023-05-02T13:06:07;100951.53;;;18.68;100.00
46087;BME280;31824;49.648;8.640;2023-05-02T13:09:10;100941.44;;;18.76;100.00
46087;BME280;31824;49.648;8.640;2023-05-02T13:12:12;100951.75;;;18.71;100.00
46087;BME280;31824;49.648;8.640;2023-05-02T13:15:14;100944.19;;;18.89;100.00
46087;BME280;31824;49.648;8.640;2023-05-02T13:18:17;100945.22;;;19.16;100.00
46087;BME280;31824;49.648;8.640;2023-05-02T13:21:20;100948.25;;;18.47;100.00
46087;BME280;31824;49.648;8.640;2023-05-02T13:24:22;100948.16;;;19.46;100.00
46087;BME280;31824;49.648;8.640;2023-05-02T13:27:24;100939.66;;;19.13;100.00
46087;BME280;31824;49.648;8.640;2023-05-02T13:30:26;100947.59;;;20.04;100.00
46087;BME280;31824;49.648;8.640;2023-05-02T13:33:29;100944.47;;;19.05;100.00
46087;BME280;31824;49.648;8.640;2023-05-02T13:36:32;100941.97;;;19.86;100.00
46087;BME280;31824;49.648;8.640;2023-05-02T13:39:34;100947.81;;;19.42;100.00
46087;BME280;31824;49.648;8.640;2023-05-02T13:42:36;100951.81;;;19.35;100.00
46087;BME280;31824;49.648;8.640;2023-05-02T13:45:38;100948.94;;;19.06;100.00
46087;BME280;31824;49.648;8.640;2023-05-02T13:48:40;100957.75;;;18.19;100.00
46087;BME280;31824;49.648;8.640;2023-05-02T13:51:43;100959.28;;;19.02;100.00
46087;BME280;31824;49.648;8.640;2023-05-02T13:54:45;100967.09;;;18.50;100.00
46087;BME280;31824;49.648;8.640;2023-05-02T13:57:47;100966.16;;;18.49;100.00
46087;BME280;31824;49.648;8.640;2023-05-02T14:00:49;100968.09;;;18.64;100.00
46087;BME280;31824;49.648;8.640;2023-05-02T14:03:51;100968.44;;;17.96;100.00
46087;BME280;31824;49.648;8.640;2023-05-02T14:06:55;100964.34;;;17.65;100.00
46087;BME280;31824;49.648;8.640;2023-05-02T14:09:57;100970.16;;;18.19;100.00
46087;BME280;31824;49.648;8.640;2023-05-02T14:12:58;100972.13;;;19.08;100.00
46087;BME280;31824;49.648;8.640;2023-05-02T14:16:00;100969.84;;;18.63;100.00
46087;BME280;31824;49.648;8.640;2023-05-02T14:19:02;100964.22;;;18.47;100.00
46087;BME280;31824;49.648;8.640;2023-05-02T14:22:05;100963.84;;;18.79;100.00
46087;BME280;31824;49.648;8.640;2023-05-02T14:25:08;100985.06;;;18.29;100.00
46087;BME280;31824;49.648;8.640;2023-05-02T14:28:10;100968.44;;;18.08;100.00
46087;BME280;31824;49.648;8.640;2023-05-02T14:31:12;100978.44;;;17.64;100.00
46087;BME280;31824;49.648;8.640;2023-05-02T14:34:14;100977.66;;;17.65;100.00
46087;BME280;31824;49.648;8.640;2023-05-02T14:37:18;100974.97;;;17.77;100.00
46087;BME280;31824;49.648;8.640;2023-05-02T14:40:19;100974.88;;;17.76;100.00
46087;BME280;31824;49.648;8.640;2023-05-02T14:43:21;100976.97;;;17.68;100.00
46087;BME280;31824;49.648;8.640;2023-05-02T14:46:23;100975.56;;;18.32;100.00
46087;BME280;31824;49.648;8.640;2023-05-02T14:49:26;100976.63;;;18.11;100.00
46087;BME280;31824;49.648;8.640;2023-05-02T14:52:29;100966.78;;;17.74;100.00
46087;BME280;31824;49.648;8.640;2023-05-02T14:55:35;100976.97;;;18.15;100.00
46087;BME280;31824;49.648;8.640;2023-05-02T14:58:36;100973.69;;;19.17;100.00
46087;BME280;31824;49.648;8.640;2023-05-02T15:01:39;100974.19;;;19.12;100.00
46087;BME280;31824;49.648;8.640;2023-05-02T15:04:41;100981.19;;;18.49;100.00
46087;BME280;31824;49.648;8.640;2023-05-02T15:07:44;100976.25;;;17.70;100.00
46087;BME280;31824;49.648;8.640;2023-05-02T15:10:46;100976.25;;;18.79;100.00
46087;BME280;31824;49.648;8.640;2023-05-02T15:13:48;100988.97;;;20.79;100.00
46087;BME280;31824;49.648;8.640;2023-05-02T15:16:50;100987.25;;;19.72;100.00
46087;BME280;31824;49.648;8.640;2023-05-02T15:19:52;100981.28;;;19.63;100.00
46087;BME280;31824;49.648;8.640;2023-05-02T15:22:57;100985.63;;;18.13;100.00
46087;BME280;31824;49.648;8.640;2023-05-02T15:26:03;100984.81;;;17.90;100.00
46087;BME280;31824;49.648;8.640;2023-05-02T15:29:05;100981.00;;;18.83;100.00
46087;BME280;31824;49.648;8.640;2023-05-02T15:32:10;100971.44;;;19.49;100.00
46087;BME280;31824;49.648;8.640;2023-05-02T15:35:13;100980.22;;;21.10;100.00
46087;BME280;31824;49.648;8.640;2023-05-02T15:38:17;100974.06;;;21.84;100.00
46087;BME280;31824;49.648;8.640;2023-05-02T15:41:19;100982.00;;;20.81;100.00
46087;BME280;31824;49.648;8.640;2023-05-02T15:44:21;100988.19;;;21.67;100.00
46087;BME280;31824;49.648;8.640;2023-05-02T15:47:23;100980.22;;;20.13;100.00
46087;BME280;31824;49.648;8.640;2023-05-02T15:50:25;100985.44;;;22.41;100.00
46087;BME280;31824;49.648;8.640;2023-05-02T15:53:29;100985.09;;;21.17;100.00
46087;BME280;31824;49.648;8.640;2023-05-02T15:56:31;100980.69;;;18.66;100.00